sensor_id;sensor_type;location;lat;lon;timestamp;temperature;humidity
55008;DHT22;40902;45.116;21.296;2023-05-10T00:01:04;307.50;2304.00
55008;DHT22;40902;45.116;21.296;2023-05-10T00:03:30;307.50;2304.00
55008;DHT22;40902;45.116;21.296;2023-05-10T00:05:56;307.40;2304.00
55008;DHT22;40902;45.116;21.296;2023-05-10T00:08:22;307.30;2304.00
55008;DHT22;40902;45.116;21.296;2023-05-10T00:10:48;307.40;2304.00
55008;DHT22;40902;45.116;21.296;2023-05-10T00:13:14;307.30;2304.00
55008;DHT22;40902;45.116;21.296;2023-05-10T00:15:40;307.40;2304.00
55008;DHT22;40902;45.116;21.296;2023-05-10T00:18:05;307.30;2304.00
55008;DHT22;40902;45.116;21.296;2023-05-10T00:20:31;307.30;2304.00
55008;DHT22;40902;45.116;21.296;2023-05-10T00:22:57;307.30;2304.00
55008;DHT22;40902;45.116;21.296;2023-05-10T00:25:22;307.40;2304.00
55008;DHT22;40902;45.116;21.296;2023-05-10T00:27:48;307.40;2304.00
55008;DHT22;40902;45.116;21.296;2023-05-10T00:30:15;307.40;2304.00
55008;DHT22;40902;45.116;21.296;2023-05-10T00:32:40;307.30;2304.00
55008;DHT22;40902;45.116;21.296;2023-05-10T00:35:06;307.30;2304.00
55008;DHT22;40902;45.116;21.296;2023-05-10T00:37:32;307.30;2304.00
55008;DHT22;40902;45.116;21.296;2023-05-10T00:39:58;307.20;2304.00
55008;DHT22;40902;45.116;21.296;2023-05-10T00:42:24;307.20;2304.00
55008;DHT22;40902;45.116;21.296;2023-05-10T00:44:49;307.20;2304.00
55008;DHT22;40902;45.116;21.296;2023-05-10T00:47:16;307.20;2304.00
55008;DHT22;40902;45.116;21.296;2023-05-10T00:49:42;307.20;2304.00
55008;DHT22;40902;45.116;21.296;2023-05-10T00:52:09;307.30;2304.00
55008;DHT22;40902;45.116;21.296;2023-05-10T00:54:35;307.30;2304.00
55008;DHT22;40902;45.116;21.296;2023-05-10T00:57:01;307.30;2304.00
55008;DHT22;40902;45.116;21.296;2023-05-10T00:59:26;307.20;2304.00
55008;DHT22;40902;45.116;21.296;2023-05-10T01:01:53;307.20;2304.00
55008;DHT22;40902;45.116;21.296;2023-05-10T01:04:19;307.20;2304.00
55008;DHT22;40902;45.116;21.296;2023-05-10T01:06:51;307.20;2304.00
55008;DHT22;40902;45.116;21.296;2023-05-10T01:09:18;307.30;2304.00
55008;DHT22;40902;45.116;21.296;2023-05-10T01:11:44;307.20;2304.00
55008;DHT22;40902;45.116;21.296;2023-05-10T01:14:10;307.30;2304.00
55008;DHT22;40902;45.116;21.296;2023-05-10T01:16:38;307.40;2304.00
55008;DHT22;40902;45.116;21.296;2023-05-10T01:19:08;307.30;2304.00
55008;DHT22;40902;45.116;21.296;2023-05-10T01:33:13;307.30;2304.00
55008;DHT22;40902;45.116;21.296;2023-05-10T01:38:51;307.30;2304.00
55008;DHT22;40902;45.116;21.296;2023-05-10T01:47:01;307.30;2304.00
55008;DHT22;40902;45.116;21.296;2023-05-10T01:49:33;307.40;2304.00
55008;DHT22;40902;45.116;21.296;2023-05-10T01:52:06;307.40;2304.00
55008;DHT22;40902;45.116;21.296;2023-05-10T01:54:33;307.30;2304.00
55008;DHT22;40902;45.116;21.296;2023-05-10T01:57:03;307.30;2304.00
55008;DHT22;40902;45.116;21.296;2023-05-10T01:59:33;307.30;2304.00
55008;DHT22;40902;45.116;21.296;2023-05-10T02:02:02;307.30;2304.00
55008;DHT22;40902;45.116;21.296;2023-05-10T02:04:30;307.30;2304.00
55008;DHT22;40902;45.116;21.296;2023-05-10T02:06:57;307.40;2304.00
55008;DHT22;40902;45.116;21.296;2023-05-10T02:09:24;307.30;2304.00
55008;DHT22;40902;45.116;21.296;2023-05-10T02:11:51;307.30;2304.00
55008;DHT22;40902;45.116;21.296;2023-05-10T02:14:18;307.30;2304.00
55008;DHT22;40902;45.116;21.296;2023-05-10T02:16:45;307.30;2304.00
55008;DHT22;40902;45.116;21.296;2023-05-10T02:19:12;307.30;2304.00
55008;DHT22;40902;45.116;21.296;2023-05-10T02:21:39;307.30;2304.00
55008;DHT22;40902;45.116;21.296;2023-05-10T02:24:06;307.20;2304.00
55008;DHT22;40902;45.116;21.296;2023-05-10T02:26:34;282.50;2278.40
55008;DHT22;40902;45.116;21.296;2023-05-10T02:29:02;307.20;2304.00
55008;DHT22;40902;45.116;21.296;2023-05-10T02:31:33;307.20;2304.00
55008;DHT22;40902;45.116;21.296;2023-05-10T02:34:01;307.20;2304.00
55008;DHT22;40902;45.116;21.296;2023-05-10T02:36:28;282.50;2278.40
55008;DHT22;40902;45.116;21.296;2023-05-10T02:38:55;307.20;2304.00
55008;DHT22;40902;45.116;21.296;2023-05-10T02:41:22;282.50;2278.40
55008;DHT22;40902;45.116;21.296;2023-05-10T02:43:50;282.50;2278.40
55008;DHT22;40902;45.116;21.296;2023-05-10T02:46:19;307.20;2304.00
55008;DHT22;40902;45.116;21.296;2023-05-10T02:48:45;307.20;2304.00
55008;DHT22;40902;45.116;21.296;2023-05-10T02:51:12;307.30;2304.00
55008;DHT22;40902;45.116;21.296;2023-05-10T02:53:41;307.30;2304.00
55008;DHT22;40902;45.116;21.296;2023-05-10T02:56:23;307.40;2304.00
55008;DHT22;40902;45.116;21.296;2023-05-10T02:58:50;307.40;2304.00
55008;DHT22;40902;45.116;21.296;2023-05-10T03:01:16;307.50;2304.00
55008;DHT22;40902;45.116;21.296;2023-05-10T03:03:41;307.50;2304.00
55008;DHT22;40902;45.116;21.296;2023-05-10T03:06:07;307.60;2304.00
55008;DHT22;40902;45.116;21.296;2023-05-10T03:08:33;307.60;2304.00
55008;DHT22;40902;45.116;21.296;2023-05-10T03:11:46;307.60;2304.00
55008;DHT22;40902;45.116;21.296;2023-05-10T03:17:30;307.70;2304.00
55008;DHT22;40902;45.116;21.296;2023-05-10T03:20:08;307.70;2304.00
55008;DHT22;40902;45.116;21.296;2023-05-10T03:22:47;307.70;2304.00
55008;DHT22;40902;45.116;21.296;2023-05-10T03:25:15;307.70;2304.00
55008;DHT22;40902;45.116;21.296;2023-05-10T03:27:43;307.70;2304.00
55008;DHT22;40902;45.116;21.296;2023-05-10T03:30:11;307.70;2304.00
55008;DHT22;40902;45.116;21.296;2023-05-10T03:32:37;307.70;2304.00
55008;DHT22;40902;45.116;21.296;2023-05-10T03:35:08;307.80;2304.00
55008;DHT22;40902;45.116;21.296;2023-05-10T03:37:34;307.80;2304.00
55008;DHT22;40902;45.116;21.296;2023-05-10T03:40:01;307.80;2304.00
55008;DHT22;40902;45.116;21.296;2023-05-10T03:42:26;307.80;2304.00
55008;DHT22;40902;45.116;21.296;2023-05-10T03:44:52;307.90;2304.00
55008;DHT22;40902;45.116;21.296;2023-05-10T03:47:18;307.90;2304.00
55008;DHT22;40902;45.116;21.296;2023-05-10T03:49:43;307.90;2304.00
55008;DHT22;40902;45.116;21.296;2023-05-10T03:52:09;307.90;2304.00
55008;DHT22;40902;45.116;21.296;2023-05-10T03:54:35;307.90;2304.00
55008;DHT22;40902;45.116;21.296;2023-05-10T03:57:00;307.90;2304.00
55008;DHT22;40902;45.116;21.296;2023-05-10T03:59:26;307.90;2304.00
55008;DHT22;40902;45.116;21.296;2023-05-10T04:01:52;307.90;2304.00
55008;DHT22;40902;45.116;21.296;2023-05-10T04:04:17;308.00;2304.00
55008;DHT22;40902;45.116;21.296;2023-05-10T04:06:44;308.10;2304.00
55008;DHT22;40902;45.116;21.296;2023-05-10T04:09:10;308.10;2304.00
55008;DHT22;40902;45.116;21.296;2023-05-10T04:11:36;332.80;2329.60
55008;DHT22;40902;45.116;21.296;2023-05-10T04:14:02;332.90;2329.60
55008;DHT22;40902;45.116;21.296;2023-05-10T04:16:27;333.00;2329.60
55008;DHT22;40902;45.116;21.296;2023-05-10T04:18:53;333.00;2329.60
55008;DHT22;40902;45.116;21.296;2023-05-10T04:21:19;333.10;2329.60
55008;DHT22;40902;45.116;21.296;2023-05-10T04:23:45;333.10;2329.60
55008;DHT22;40902;45.116;21.296;2023-05-10T04:26:10;333.10;2329.60
55008;DHT22;40902;45.116;21.296;2023-05-10T04:28:36;333.20;2329.60
55008;DHT22;40902;45.116;21.296;2023-05-10T04:31:07;333.30;2329.60
55008;DHT22;40902;45.116;21.296;2023-05-10T04:33:33;333.30;2329.60
55008;DHT22;40902;45.116;21.296;2023-05-10T04:35:59;333.40;2329.60
55008;DHT22;40902;45.116;21.296;2023-05-10T04:38:25;333.40;2329.60
55008;DHT22;40902;45.116;21.296;2023-05-10T04:40:51;333.50;2329.60
55008;DHT22;40902;45.116;21.296;2023-05-10T04:43:16;333.50;2329.60
55008;DHT22;40902;45.116;21.296;2023-05-10T04:45:42;333.50;2329.60
55008;DHT22;40902;45.116;21.296;2023-05-10T04:48:08;333.50;2329.60
55008;DHT22;40902;45.116;21.296;2023-05-10T04:50:33;333.60;2329.60
55008;DHT22;40902;45.116;21.296;2023-05-10T04:52:59;333.70;2329.60
55008;DHT22;40902;45.116;21.296;2023-05-10T04:55:25;333.70;2329.60
55008;DHT22;40902;45.116;21.296;2023-05-10T04:57:52;333.70;2329.60
55008;DHT22;40902;45.116;21.296;2023-05-10T05:00:18;358.40;2329.60
55008;DHT22;40902;45.116;21.296;2023-05-10T05:02:44;358.50;2329.60
55008;DHT22;40902;45.116;21.296;2023-05-10T05:05:13;358.50;2329.60
55008;DHT22;40902;45.116;21.296;2023-05-10T05:07:39;358.60;2329.60
55008;DHT22;40902;45.116;21.296;2023-05-10T05:10:06;358.60;2329.60
55008;DHT22;40902;45.116;21.296;2023-05-10T05:12:32;358.70;2329.60
55008;DHT22;40902;45.116;21.296;2023-05-10T05:14:58;359.00;2329.60
55008;DHT22;40902;45.116;21.296;2023-05-10T05:17:24;358.80;2329.60
55008;DHT22;40902;45.116;21.296;2023-05-10T05:19:49;358.90;2329.60
55008;DHT22;40902;45.116;21.296;2023-05-10T05:22:15;358.90;2329.60
55008;DHT22;40902;45.116;21.296;2023-05-10T05:27:07;384.10;2329.60
55008;DHT22;40902;45.116;21.296;2023-05-10T05:29:33;359.10;2329.60
55008;DHT22;40902;45.116;21.296;2023-05-10T05:31:58;384.10;2329.60
55008;DHT22;40902;45.116;21.296;2023-05-10T05:34:24;359.30;2329.60
55008;DHT22;40902;45.116;21.296;2023-05-10T05:36:50;359.30;2329.60
55008;DHT22;40902;45.116;21.296;2023-05-10T05:39:16;359.30;2329.60
55008;DHT22;40902;45.116;21.296;2023-05-10T05:41:42;384.00;2329.60
55008;DHT22;40902;45.116;21.296;2023-05-10T05:44:08;384.00;2329.60
55008;DHT22;40902;45.116;21.296;2023-05-10T05:58:50;384.90;2329.60
55008;DHT22;40902;45.116;21.296;2023-05-10T06:01:16;384.70;2329.60
55008;DHT22;40902;45.116;21.296;2023-05-10T06:03:42;384.70;2329.60
55008;DHT22;40902;45.116;21.296;2023-05-10T06:06:07;384.70;2329.60
55008;DHT22;40902;45.116;21.296;2023-05-10T06:08:33;384.60;2329.60
55008;DHT22;40902;45.116;21.296;2023-05-10T06:11:00;384.70;2329.60
55008;DHT22;40902;45.116;21.296;2023-05-10T06:13:25;384.80;2329.60
55008;DHT22;40902;45.116;21.296;2023-05-10T06:15:59;384.80;2329.60
55008;DHT22;40902;45.116;21.296;2023-05-10T06:18:25;409.60;2355.20
55008;DHT22;40902;45.116;21.296;2023-05-10T06:20:51;409.60;2355.20
55008;DHT22;40902;45.116;21.296;2023-05-10T06:23:17;409.70;2355.20
55008;DHT22;40902;45.116;21.296;2023-05-10T06:25:43;409.70;2355.20
55008;DHT22;40902;45.116;21.296;2023-05-10T06:28:08;409.90;2355.20
55008;DHT22;40902;45.116;21.296;2023-05-10T06:30:36;409.90;2355.20
55008;DHT22;40902;45.116;21.296;2023-05-10T06:33:02;409.80;2355.20
55008;DHT22;40902;45.116;21.296;2023-05-10T06:35:28;409.70;2355.20
55008;DHT22;40902;45.116;21.296;2023-05-10T06:37:54;409.90;2355.20
55008;DHT22;40902;45.116;21.296;2023-05-10T06:40:20;409.70;2355.20
55008;DHT22;40902;45.116;21.296;2023-05-10T06:42:47;409.80;2355.20
55008;DHT22;40902;45.116;21.296;2023-05-10T06:45:14;409.90;2355.20
55008;DHT22;40902;45.116;21.296;2023-05-10T06:47:40;409.80;2355.20
55008;DHT22;40902;45.116;21.296;2023-05-10T06:50:08;409.80;2355.20
55008;DHT22;40902;45.116;21.296;2023-05-10T06:52:33;409.80;2355.20
55008;DHT22;40902;45.116;21.296;2023-05-10T06:54:59;409.90;2355.20
55008;DHT22;40902;45.116;21.296;2023-05-10T06:57:25;410.00;2355.20
55008;DHT22;40902;45.116;21.296;2023-05-10T06:59:51;409.90;2355.20
55008;DHT22;40902;45.116;21.296;2023-05-10T07:02:17;410.00;2355.20
55008;DHT22;40902;45.116;21.296;2023-05-10T07:04:43;410.00;2355.20
55008;DHT22;40902;45.116;21.296;2023-05-10T07:07:09;410.10;2355.20
55008;DHT22;40902;45.116;21.296;2023-05-10T07:09:35;410.10;2355.20
55008;DHT22;40902;45.116;21.296;2023-05-10T07:12:01;410.10;2355.20
55008;DHT22;40902;45.116;21.296;2023-05-10T07:14:27;410.10;2355.20
55008;DHT22;40902;45.116;21.296;2023-05-10T07:16:53;410.20;2355.20
55008;DHT22;40902;45.116;21.296;2023-05-10T07:19:19;410.20;2355.20
55008;DHT22;40902;45.116;21.296;2023-05-10T07:21:45;410.50;2355.20
55008;DHT22;40902;45.116;21.296;2023-05-10T07:24:11;410.30;2355.20
55008;DHT22;40902;45.116;21.296;2023-05-10T07:26:36;410.30;2355.20
55008;DHT22;40902;45.116;21.296;2023-05-10T07:29:02;410.40;2355.20
55008;DHT22;40902;45.116;21.296;2023-05-10T07:31:28;410.40;2355.20
55008;DHT22;40902;45.116;21.296;2023-05-10T07:33:54;410.40;2355.20
55008;DHT22;40902;45.116;21.296;2023-05-10T07:36:19;410.40;2355.20
55008;DHT22;40902;45.116;21.296;2023-05-10T07:38:45;410.50;2355.20
55008;DHT22;40902;45.116;21.296;2023-05-10T07:41:14;410.50;2355.20
55008;DHT22;40902;45.116;21.296;2023-05-10T07:43:40;410.50;2355.20
55008;DHT22;40902;45.116;21.296;2023-05-10T07:46:05;435.20;2355.20
55008;DHT22;40902;45.116;21.296;2023-05-10T07:48:31;435.30;2355.20
55008;DHT22;40902;45.116;21.296;2023-05-10T07:50:57;435.30;2355.20
55008;DHT22;40902;45.116;21.296;2023-05-10T07:53:22;435.70;2355.20
55008;DHT22;40902;45.116;21.296;2023-05-10T07:55:52;435.50;2355.20
55008;DHT22;40902;45.116;21.296;2023-05-10T07:58:19;435.40;2355.20
55008;DHT22;40902;45.116;21.296;2023-05-10T08:00:45;435.40;2355.20
55008;DHT22;40902;45.116;21.296;2023-05-10T08:03:11;435.40;2355.20
55008;DHT22;40902;45.116;21.296;2023-05-10T08:05:37;435.40;2355.20
55008;DHT22;40902;45.116;21.296;2023-05-10T08:08:02;435.40;2355.20
55008;DHT22;40902;45.116;21.296;2023-05-10T08:10:28;435.50;2355.20
55008;DHT22;40902;45.116;21.296;2023-05-10T08:22:42;436.10;2355.20
55008;DHT22;40902;45.116;21.296;2023-05-10T08:25:07;435.80;2355.20
55008;DHT22;40902;45.116;21.296;2023-05-10T08:27:33;435.90;2355.20
55008;DHT22;40902;45.116;21.296;2023-05-10T08:32:26;460.90;2380.80
55008;DHT22;40902;45.116;21.296;2023-05-10T08:34:51;436.10;2355.20
55008;DHT22;40902;45.116;21.296;2023-05-10T08:37:17;436.10;2355.20
55008;DHT22;40902;45.116;21.296;2023-05-10T08:39:42;436.10;2355.20
55008;DHT22;40902;45.116;21.296;2023-05-10T08:42:09;461.00;2380.80
55008;DHT22;40902;45.116;21.296;2023-05-10T08:44:36;460.80;2380.80
55008;DHT22;40902;45.116;21.296;2023-05-10T08:47:06;460.80;2380.80
55008;DHT22;40902;45.116;21.296;2023-05-10T08:49:32;460.90;2380.80
55008;DHT22;40902;45.116;21.296;2023-05-10T08:52:01;460.90;2380.80
55008;DHT22;40902;45.116;21.296;2023-05-10T08:54:28;461.00;2329.60
55008;DHT22;40902;45.116;21.296;2023-05-10T08:56:55;461.00;2355.20
55008;DHT22;40902;45.116;21.296;2023-05-10T08:59:22;460.90;2329.60
55008;DHT22;40902;45.116;21.296;2023-05-10T09:01:48;460.90;2304.00
55008;DHT22;40902;45.116;21.296;2023-05-10T09:04:14;460.90;2278.40
55008;DHT22;40902;45.116;21.296;2023-05-10T09:06:41;460.80;2252.80
55008;DHT22;40902;45.116;21.296;2023-05-10T09:09:07;460.80;2278.40
55008;DHT22;40902;45.116;21.296;2023-05-10T09:11:33;460.90;2304.00
55008;DHT22;40902;45.116;21.296;2023-05-10T09:13:59;461.00;2278.40
55008;DHT22;40902;45.116;21.296;2023-05-10T09:16:24;461.10;2227.20
55008;DHT22;40902;45.116;21.296;2023-05-10T09:36:16;461.60;2150.40
55008;DHT22;40902;45.116;21.296;2023-05-10T09:38:52;461.40;2150.40
55008;DHT22;40902;45.116;21.296;2023-05-10T09:41:24;461.30;2176.00
55008;DHT22;40902;45.116;21.296;2023-05-10T09:43:55;461.50;2150.40
55008;DHT22;40902;45.116;21.296;2023-05-10T09:46:21;461.50;2099.20
55008;DHT22;40902;45.116;21.296;2023-05-10T09:48:48;461.40;2099.20
55008;DHT22;40902;45.116;21.296;2023-05-10T09:51:24;461.50;2124.80
55008;DHT22;40902;45.116;21.296;2023-05-10T09:54:14;461.50;2124.80
55008;DHT22;40902;45.116;21.296;2023-05-10T09:56:41;461.60;2099.20
55008;DHT22;40902;45.116;21.296;2023-05-10T09:59:11;461.60;2099.20
55008;DHT22;40902;45.116;21.296;2023-05-10T10:01:38;461.70;2099.20
55008;DHT22;40902;45.116;21.296;2023-05-10T10:04:06;461.70;2073.60
55008;DHT22;40902;45.116;21.296;2023-05-10T10:06:38;461.70;2099.20
55008;DHT22;40902;45.116;21.296;2023-05-10T10:09:05;461.70;2099.20
55008;DHT22;40902;45.116;21.296;2023-05-10T10:11:31;486.40;2073.60
55008;DHT22;40902;45.116;21.296;2023-05-10T10:13:58;486.40;2073.60
55008;DHT22;40902;45.116;21.296;2023-05-10T10:16:24;486.40;2073.60
55008;DHT22;40902;45.116;21.296;2023-05-10T10:18:50;486.40;2073.60
55008;DHT22;40902;45.116;21.296;2023-05-10T10:21:16;486.50;2099.20
55008;DHT22;40902;45.116;21.296;2023-05-10T10:23:42;486.50;2099.20
55008;DHT22;40902;45.116;21.296;2023-05-10T10:26:10;486.50;2073.60
55008;DHT22;40902;45.116;21.296;2023-05-10T10:31:46;486.90;2099.20
55008;DHT22;40902;45.116;21.296;2023-05-10T10:34:29;487.30;2048.00
55008;DHT22;40902;45.116;21.296;2023-05-10T10:36:56;487.00;2073.60
55008;DHT22;40902;45.116;21.296;2023-05-10T10:39:26;487.00;2073.60
55008;DHT22;40902;45.116;21.296;2023-05-10T10:41:56;487.00;2073.60
55008;DHT22;40902;45.116;21.296;2023-05-10T10:47:08;487.10;2048.00
55008;DHT22;40902;45.116;21.296;2023-05-10T11:15:32;487.30;2022.40
55008;DHT22;40902;45.116;21.296;2023-05-10T11:17:58;487.20;2048.00
55008;DHT22;40902;45.116;21.296;2023-05-10T11:20:27;487.20;2048.00
55008;DHT22;40902;45.116;21.296;2023-05-10T11:23:11;512.10;2048.00
55008;DHT22;40902;45.116;21.296;2023-05-10T11:25:42;512.10;2048.00
55008;DHT22;40902;45.116;21.296;2023-05-10T11:28:12;512.20;2022.40
55008;DHT22;40902;45.116;21.296;2023-05-10T11:30:42;487.30;2048.00
55008;DHT22;40902;45.116;21.296;2023-05-10T11:33:09;512.00;2073.60
55008;DHT22;40902;45.116;21.296;2023-05-10T11:35:39;487.30;2048.00
55008;DHT22;40902;45.116;21.296;2023-05-10T11:38:09;487.30;2022.40
55008;DHT22;40902;45.116;21.296;2023-05-10T11:40:36;487.20;2048.00
55008;DHT22;40902;45.116;21.296;2023-05-10T11:43:03;487.20;2073.60
55008;DHT22;40902;45.116;21.296;2023-05-10T11:45:32;487.20;2022.40
55008;DHT22;40902;45.116;21.296;2023-05-10T11:47:58;487.10;2022.40
55008;DHT22;40902;45.116;21.296;2023-05-10T11:50:25;487.20;2073.60
55008;DHT22;40902;45.116;21.296;2023-05-10T11:52:55;487.20;2048.00
55008;DHT22;40902;45.116;21.296;2023-05-10T11:55:22;487.20;2048.00
55008;DHT22;40902;45.116;21.296;2023-05-10T11:57:52;487.30;2048.00
55008;DHT22;40902;45.116;21.296;2023-05-10T12:00:17;487.20;2048.00
55008;DHT22;40902;45.116;21.296;2023-05-10T12:02:43;487.30;2048.00
55008;DHT22;40902;45.116;21.296;2023-05-10T12:05:09;512.00;2048.00
55008;DHT22;40902;45.116;21.296;2023-05-10T12:07:36;512.10;2048.00
55008;DHT22;40902;45.116;21.296;2023-05-10T12:10:14;487.30;2048.00
55008;DHT22;40902;45.116;21.296;2023-05-10T12:12:46;512.00;2048.00
55008;DHT22;40902;45.116;21.296;2023-05-10T12:15:20;512.00;2048.00
55008;DHT22;40902;45.116;21.296;2023-05-10T12:17:47;487.30;2022.40
55008;DHT22;40902;45.116;21.296;2023-05-10T12:20:17;487.30;2022.40
55008;DHT22;40902;45.116;21.296;2023-05-10T12:22:45;512.00;2048.00
55008;DHT22;40902;45.116;21.296;2023-05-10T12:25:11;512.00;2048.00
55008;DHT22;40902;45.116;21.296;2023-05-10T12:27:37;512.40;2022.40
55008;DHT22;40902;45.116;21.296;2023-05-10T12:30:03;512.10;2022.40
55008;DHT22;40902;45.116;21.296;2023-05-10T12:32:41;512.10;2022.40
55008;DHT22;40902;45.116;21.296;2023-05-10T12:35:07;512.00;1996.80
55008;DHT22;40902;45.116;21.296;2023-05-10T12:37:34;512.00;2022.40
55008;DHT22;40902;45.116;21.296;2023-05-10T12:40:06;487.30;2022.40
55008;DHT22;40902;45.116;21.296;2023-05-10T12:42:32;487.20;2022.40
55008;DHT22;40902;45.116;21.296;2023-05-10T12:44:57;487.20;2022.40
55008;DHT22;40902;45.116;21.296;2023-05-10T12:47:23;487.30;2022.40
55008;DHT22;40902;45.116;21.296;2023-05-10T12:49:49;487.20;2022.40
55008;DHT22;40902;45.116;21.296;2023-05-10T12:52:14;487.20;1996.80
55008;DHT22;40902;45.116;21.296;2023-05-10T12:54:40;487.10;2022.40
55008;DHT22;40902;45.116;21.296;2023-05-10T12:57:06;487.20;2022.40
55008;DHT22;40902;45.116;21.296;2023-05-10T12:59:31;487.20;2022.40
55008;DHT22;40902;45.116;21.296;2023-05-10T13:01:57;487.30;1996.80
55008;DHT22;40902;45.116;21.296;2023-05-10T13:04:23;487.20;1996.80
55008;DHT22;40902;45.116;21.296;2023-05-10T13:06:49;487.20;1996.80
55008;DHT22;40902;45.116;21.296;2023-05-10T13:09:14;487.20;1996.80
55008;DHT22;40902;45.116;21.296;2023-05-10T13:11:40;487.20;2022.40
55008;DHT22;40902;45.116;21.296;2023-05-10T13:14:06;487.20;1971.20
55008;DHT22;40902;45.116;21.296;2023-05-10T13:16:32;512.00;2022.40
55008;DHT22;40902;45.116;21.296;2023-05-10T13:18:58;512.00;1996.80
55008;DHT22;40902;45.116;21.296;2023-05-10T13:21:24;512.00;1996.80
55008;DHT22;40902;45.116;21.296;2023-05-10T13:23:50;512.00;1996.80
55008;DHT22;40902;45.116;21.296;2023-05-10T13:26:16;512.10;1996.80
55008;DHT22;40902;45.116;21.296;2023-05-10T13:28:43;512.10;1996.80
55008;DHT22;40902;45.116;21.296;2023-05-10T13:31:08;512.20;2022.40
55008;DHT22;40902;45.116;21.296;2023-05-10T13:33:34;512.20;1996.80
55008;DHT22;40902;45.116;21.296;2023-05-10T13:36:00;512.60;1971.20
55008;DHT22;40902;45.116;21.296;2023-05-10T13:38:27;512.40;1971.20
55008;DHT22;40902;45.116;21.296;2023-05-10T13:40:52;512.40;1971.20
55008;DHT22;40902;45.116;21.296;2023-05-10T13:43:19;512.20;1971.20
55008;DHT22;40902;45.116;21.296;2023-05-10T13:45:44;512.20;1971.20
55008;DHT22;40902;45.116;21.296;2023-05-10T13:48:10;512.20;1971.20
55008;DHT22;40902;45.116;21.296;2023-05-10T13:50:36;512.20;1945.60
55008;DHT22;40902;45.116;21.296;2023-05-10T13:53:01;512.20;1945.60
55008;DHT22;40902;45.116;21.296;2023-05-10T13:55:27;512.30;1971.20
55008;DHT22;40902;45.116;21.296;2023-05-10T13:57:54;512.30;1971.20
55008;DHT22;40902;45.116;21.296;2023-05-10T14:00:19;512.30;1945.60
55008;DHT22;40902;45.116;21.296;2023-05-10T14:02:45;512.30;1945.60
55008;DHT22;40902;45.116;21.296;2023-05-10T14:05:11;512.30;1971.20
55008;DHT22;40902;45.116;21.296;2023-05-10T14:07:36;512.50;1971.20
55008;DHT22;40902;45.116;21.296;2023-05-10T14:10:02;512.40;1945.60
55008;DHT22;40902;45.116;21.296;2023-05-10T14:12:28;512.40;1945.60
55008;DHT22;40902;45.116;21.296;2023-05-10T14:14:54;512.40;1894.40
55008;DHT22;40902;45.116;21.296;2023-05-10T14:17:20;512.40;1920.00
55008;DHT22;40902;45.116;21.296;2023-05-10T14:19:45;512.70;1920.00
55008;DHT22;40902;45.116;21.296;2023-05-10T17:33:08;461.40;1920.00
55008;DHT22;40902;45.116;21.296;2023-05-10T17:35:34;461.20;1920.00
55008;DHT22;40902;45.116;21.296;2023-05-10T17:38:00;461.20;1945.60
55008;DHT22;40902;45.116;21.296;2023-05-10T17:40:26;461.00;1945.60
55008;DHT22;40902;45.116;21.296;2023-05-10T17:42:52;460.90;1996.80
55008;DHT22;40902;45.116;21.296;2023-05-10T17:45:17;460.80;1996.80
55008;DHT22;40902;45.116;21.296;2023-05-10T17:47:43;436.00;1971.20
55008;DHT22;40902;45.116;21.296;2023-05-10T17:50:09;435.90;1996.80
55008;DHT22;40902;45.116;21.296;2023-05-10T17:52:35;435.80;1996.80
55008;DHT22;40902;45.116;21.296;2023-05-10T17:55:01;435.70;1996.80
55008;DHT22;40902;45.116;21.296;2023-05-10T17:57:28;435.70;2022.40
55008;DHT22;40902;45.116;21.296;2023-05-10T17:59:53;435.50;2048.00
55008;DHT22;40902;45.116;21.296;2023-05-10T18:02:20;435.40;2048.00
55008;DHT22;40902;45.116;21.296;2023-05-10T18:04:45;435.30;2048.00
55008;DHT22;40902;45.116;21.296;2023-05-10T18:07:13;435.20;2073.60
55008;DHT22;40902;45.116;21.296;2023-05-10T18:19:23;435.40;2124.80
55008;DHT22;40902;45.116;21.296;2023-05-10T18:21:50;435.30;2124.80
55008;DHT22;40902;45.116;21.296;2023-05-10T18:24:17;410.30;2150.40
55008;DHT22;40902;45.116;21.296;2023-05-10T18:26:43;410.40;2150.40
55008;DHT22;40902;45.116;21.296;2023-05-10T18:29:08;410.30;2176.00
55008;DHT22;40902;45.116;21.296;2023-05-10T18:31:36;410.10;2176.00
55008;DHT22;40902;45.116;21.296;2023-05-10T18:34:01;410.00;2176.00
55008;DHT22;40902;45.116;21.296;2023-05-10T18:36:27;410.00;2176.00
55008;DHT22;40902;45.116;21.296;2023-05-10T18:38:53;410.00;2201.60
55008;DHT22;40902;45.116;21.296;2023-05-10T18:41:19;410.00;2201.60
55008;DHT22;40902;45.116;21.296;2023-05-10T18:53:30;410.10;2227.20
55008;DHT22;40902;45.116;21.296;2023-05-10T18:55:57;409.60;2227.20
55008;DHT22;40902;45.116;21.296;2023-05-10T19:00:51;409.80;2252.80
55008;DHT22;40902;45.116;21.296;2023-05-10T19:03:17;409.80;2252.80
55008;DHT22;40902;45.116;21.296;2023-05-10T19:08:08;409.70;2252.80
55008;DHT22;40902;45.116;21.296;2023-05-10T19:15:26;409.60;2278.40
55008;DHT22;40902;45.116;21.296;2023-05-10T19:17:52;384.60;2278.40
55008;DHT22;40902;45.116;21.296;2023-05-10T19:20:17;384.50;2252.80
55008;DHT22;40902;45.116;21.296;2023-05-10T19:22:43;384.40;2252.80
55008;DHT22;40902;45.116;21.296;2023-05-10T19:25:09;384.40;2278.40
55008;DHT22;40902;45.116;21.296;2023-05-10T19:27:35;384.40;2278.40
55008;DHT22;40902;45.116;21.296;2023-05-10T19:30:00;384.30;2278.40
55008;DHT22;40902;45.116;21.296;2023-05-10T19:32:26;384.20;2278.40
55008;DHT22;40902;45.116;21.296;2023-05-10T19:34:52;384.20;2278.40
55008;DHT22;40902;45.116;21.296;2023-05-10T19:37:18;384.20;2304.00
55008;DHT22;40902;45.116;21.296;2023-05-10T19:39:44;384.10;2304.00
55008;DHT22;40902;45.116;21.296;2023-05-10T19:42:10;384.00;2304.00
55008;DHT22;40902;45.116;21.296;2023-05-10T19:44:35;384.00;2304.00
55008;DHT22;40902;45.116;21.296;2023-05-10T19:47:01;384.00;2329.60
55008;DHT22;40902;45.116;21.296;2023-05-10T19:49:29;384.00;2329.60
55008;DHT22;40902;45.116;21.296;2023-05-10T19:51:54;384.00;2329.60
55008;DHT22;40902;45.116;21.296;2023-05-10T19:54:20;359.30;2329.60